Time,TemperatureF,DewpointF,PressureIn,WindDirection,WindDirectionDegrees,WindSpeedMPH,WindSpeedGustMPH,Humidity,HourlyPrecipIn,Conditions,Clouds,dailyrainin,SoftwareType,DateUTC
2013-06-19 00:01:00,67.3,67.3,30.00,SSW,202,0.0,0.0,100,0.00,,BKN055,0.00,VWS V14.01,2013-06-19 04:01:00,
2013-06-19 00:02:00,67.3,67.3,30.00,SSW,202,0.0,0.0,100,0.00,,BKN055,0.00,VWS V14.01,2013-06-19 04:02:00,
2013-06-19 00:07:00,67.3,67.3,30.00,SSW,202,0.0,0.0,100,0.00,,BKN055,0.00,VWS V14.01,2013-06-19 04:07:00,
2013-06-19 00:12:00,67.3,67.3,30.00,SSW,202,0.0,0.0,100,0.00,,BKN055,0.00,VWS V14.01,2013-06-19 04:12:00,
2013-06-19 00:17:00,67.3,67.3,30.00,SSW,202,0.0,0.0,100,0.00,,BKN055,0.00,VWS V14.01,2013-06-19 04:17:00,
2013-06-19 00:22:00,67.3,67.3,30.00,SSW,202,0.0,0.0,100,0.00,,OVC050,0.00,VWS V14.01,2013-06-19 04:22:00,
2013-06-19 00:27:00,67.1,67.1,30.00,SSW,202,0.0,0.0,100,0.00,,OVC050,0.00,VWS V14.01,2013-06-19 04:27:00,
2013-06-19 00:32:00,67.3,67.3,30.03,SSW,202,0.0,0.0,100,0.00,,OVC050,0.00,VWS V14.01,2013-06-19 04:32:00,
2013-06-19 00:37:00,67.1,67.1,30.03,SSW,202,0.0,0.0,100,0.00,,OVC050,0.00,VWS V14.01,2013-06-19 04:37:00,
2013-06-19 00:42:00,67.1,67.1,30.03,SSW,202,0.0,0.0,100,0.00,,OVC050,0.00,VWS V14.01,2013-06-19 04:42:00,
2013-06-19 00:47:00,67.1,67.1,30.00,SSW,202,0.0,0.0,100,0.00,,OVC050,0.00,VWS V14.01,2013-06-19 04:47:00,
2013-06-19 00:52:00,67.3,67.3,30.00,SSW,202,0.0,0.0,100,0.00,,OVC050,0.00,VWS V14.01,2013-06-19 04:52:00,
2013-06-19 00:57:00,67.1,67.1,30.00,SSW,202,0.0,0.0,100,0.00,,OVC050,0.00,VWS V14.01,2013-06-19 04:57:00,
2013-06-19 01:02:00,66.9,66.9,30.00,SSW,202,0.0,0.0,100,0.00,,OVC050,0.00,VWS V14.01,2013-06-19 05:02:00,
2013-06-19 01:07:00,66.9,66.9,30.00,SSW,202,0.0,0.0,100,0.00,,OVC050,0.00,VWS V14.01,2013-06-19 05:07:00,
2013-06-19 01:12:00,66.7,66.7,30.00,SSW,202,0.0,0.0,100,0.00,,OVC050,0.00,VWS V14.01,2013-06-19 05:12:00,
2013-06-19 01:17:00,66.6,66.6,30.00,SSW,202,0.0,0.0,100,0.00,,OVC050,0.00,VWS V14.01,2013-06-19 05:17:00,
2013-06-19 01:22:00,66.4,66.4,30.00,SSW,202,0.0,0.0,100,0.00,,OVC050,0.00,VWS V14.01,2013-06-19 05:22:00,
2013-06-19 01:27:00,66.2,66.2,30.00,SSW,202,0.0,0.0,100,0.00,,OVC050,0.00,VWS V14.01,2013-06-19 05:27:00,
2013-06-19 01:32:00,66.2,66.2,30.00,SSW,202,0.0,0.0,100,0.00,,OVC050,0.00,VWS V14.01,2013-06-19 05:32:00,
2013-06-19 01:37:00,65.8,65.8,30.00,SSW,202,0.0,0.0,100,0.00,,OVC050,0.00,VWS V14.01,2013-06-19 05:37:00,
2013-06-19 01:42:00,65.7,65.7,30.00,SSW,202,0.0,0.0,100,0.00,,BKN060,0.00,VWS V14.01,2013-06-19 05:42:00,
2013-06-19 01:47:00,65.5,65.5,30.00,SSW,202,0.0,0.0,100,0.00,,BKN060,0.00,VWS V14.01,2013-06-19 05:47:00,
2013-06-19 01:52:00,65.5,65.5,30.00,SSW,202,0.0,0.0,100,0.00,,BKN060,0.00,VWS V14.01,2013-06-19 05:52:00,
2013-06-19 01:57:00,65.3,65.3,30.00,SSW,202,0.0,0.0,100,0.00,,BKN060,0.00,VWS V14.01,2013-06-19 05:57:00,
2013-06-19 02:02:00,64.9,64.9,30.00,SSW,202,0.0,0.0,100,0.00,,SCT060,0.00,VWS V14.01,2013-06-19 06:02:00,
2013-06-19 02:07:00,64.9,64.9,30.00,SSW,202,0.0,0.0,100,0.00,,SCT060,0.00,VWS V14.01,2013-06-19 06:07:00,
2013-06-19 02:12:00,64.8,64.8,30.00,SSW,202,0.0,0.0,100,0.00,,SCT060,0.00,VWS V14.01,2013-06-19 06:12:00,
2013-06-19 02:17:00,64.6,64.6,30.00,SSW,202,0.0,0.0,100,0.00,,SCT060,0.00,VWS V14.01,2013-06-19 06:17:00,
2013-06-19 02:22:00,64.6,64.6,30.00,SSW,202,0.0,0.0,100,0.00,,CLR,0.00,VWS V14.01,2013-06-19 06:22:00,
2013-06-19 02:27:00,64.4,64.4,30.00,SSW,202,0.0,0.0,100,0.00,,CLR,0.00,VWS V14.01,2013-06-19 06:27:00,
2013-06-19 02:32:00,64.2,64.2,30.00,SSW,202,0.0,0.0,100,0.00,,CLR,0.00,VWS V14.01,2013-06-19 06:32:00,
2013-06-19 02:37:00,64.0,64.0,30.00,SSW,202,0.0,0.0,100,0.00,,CLR,0.00,VWS V14.01,2013-06-19 06:37:00,
2013-06-19 02:42:00,64.0,64.0,30.00,SSW,202,0.0,0.0,100,0.00,,CLR,0.00,VWS V14.01,2013-06-19 06:42:00,
2013-06-19 02:47:00,64.0,64.0,30.00,SSW,202,0.0,0.0,100,0.00,,CLR,0.00,VWS V14.01,2013-06-19 06:47:00,
2013-06-19 02:52:00,64.0,64.0,30.00,SSW,202,0.0,0.0,100,0.00,,CLR,0.00,VWS V14.01,2013-06-19 06:52:00,
2013-06-19 02:57:00,63.9,63.9,30.00,SSW,202,0.0,0.0,100,0.00,,CLR,0.00,VWS V14.01,2013-06-19 06:57:00,
2013-06-19 03:02:00,63.9,63.9,30.00,SSW,202,0.0,0.0,100,0.00,,,0.00,VWS V14.01,2013-06-19 07:02:00,
2013-06-19 03:07:00,63.7,63.7,30.00,SSW,202,0.0,0.0,100,0.00,,,0.00,VWS V14.01,2013-06-19 07:07:00,
2013-06-19 03:12:00,63.7,63.7,30.00,SSW,202,0.0,0.0,100,0.00,,,0.00,VWS V14.01,2013-06-19 07:12:00,
2013-06-19 03:17:00,63.5,63.5,29.97,SSW,202,0.0,0.0,100,0.00,,,0.00,VWS V14.01,2013-06-19 07:17:00,
2013-06-19 03:22:00,63.3,63.3,29.97,SSW,202,0.0,0.0,100,0.00,,CLR,0.00,VWS V14.01,2013-06-19 07:22:00,
2013-06-19 03:27:00,63.3,63.3,29.97,SSW,202,0.0,0.0,100,0.00,,CLR,0.00,VWS V14.01,2013-06-19 07:27:00,
2013-06-19 03:32:00,63.1,63.1,29.97,SSW,202,0.0,0.0,100,0.00,,CLR,0.00,VWS V14.01,2013-06-19 07:32:00,
2013-06-19 03:37:00,63.1,63.1,30.00,SSW,202,0.0,0.0,100,0.00,,CLR,0.00,VWS V14.01,2013-06-19 07:37:00,
2013-06-19 03:42:00,63.0,63.0,30.00,SSW,202,0.0,0.0,100,0.00,,CLR,0.00,VWS V14.01,2013-06-19 07:42:00,
2013-06-19 03:47:00,63.0,63.0,30.00,SSW,202,0.0,0.0,100,0.00,,CLR,0.00,VWS V14.01,2013-06-19 07:47:00,
2013-06-19 03:52:00,63.0,63.0,30.00,SSW,202,0.0,0.0,100,0.00,,CLR,0.00,VWS V14.01,2013-06-19 07:52:00,
2013-06-19 03:57:00,63.0,63.0,30.00,SSW,202,0.0,0.0,100,0.00,,CLR,0.00,VWS V14.01,2013-06-19 07:57:00,
2013-06-19 04:02:00,62.8,62.8,29.97,SSW,202,0.0,0.0,100,0.00,,CLR,0.00,VWS V14.01,2013-06-19 08:02:00,
2013-06-19 04:07:00,62.6,62.6,29.97,SSW,202,0.0,0.0,100,0.00,,CLR,0.00,VWS V14.01,2013-06-19 08:07:00,
2013-06-19 04:12:00,62.6,62.6,29.97,SSW,202,0.0,0.0,100,0.00,,CLR,0.00,VWS V14.01,2013-06-19 08:12:00,
2013-06-19 04:17:00,62.8,62.8,30.00,SSW,202,0.0,0.0,100,0.00,,CLR,0.00,VWS V14.01,2013-06-19 08:17:00,
2013-06-19 04:22:00,63.0,63.0,30.00,SSW,202,0.0,0.0,100,0.00,,,0.00,VWS V14.01,2013-06-19 08:22:00,
2013-06-19 04:27:00,63.0,63.0,30.00,SSW,202,0.0,0.0,100,0.00,,,0.00,VWS V14.01,2013-06-19 08:27:00,
2013-06-19 04:32:00,62.8,62.8,29.97,SSW,202,0.0,0.0,100,0.00,,,0.00,VWS V14.01,2013-06-19 08:32:00,
2013-06-19 04:37:00,62.6,62.6,29.97,SSW,202,0.0,0.0,100,0.00,,,0.00,VWS V14.01,2013-06-19 08:37:00,
2013-06-19 04:42:00,62.4,62.4,29.97,SSW,202,0.0,0.0,100,0.00,,,0.00,VWS V14.01,2013-06-19 08:42:00,
2013-06-19 04:47:00,62.2,62.2,29.97,SSW,202,0.0,0.0,100,0.00,,,0.00,VWS V14.01,2013-06-19 08:47:00,
2013-06-19 04:52:00,62.2,62.2,29.97,SSW,202,0.0,0.0,100,0.00,,,0.00,VWS V14.01,2013-06-19 08:52:00,
2013-06-19 04:57:00,62.2,62.2,29.97,SSW,202,0.0,0.0,100,0.00,,,0.00,VWS V14.01,2013-06-19 08:57:00,
2013-06-19 05:02:00,62.1,62.1,29.97,SSW,202,0.0,0.0,100,0.00,,CLR,0.00,VWS V14.01,2013-06-19 09:02:00,
2013-06-19 05:07:00,61.9,61.9,29.97,SSW,202,0.0,0.0,100,0.00,,CLR,0.00,VWS V14.01,2013-06-19 09:07:00,
2013-06-19 05:12:00,61.9,61.9,29.97,SSW,202,0.0,0.0,100,0.00,,CLR,0.00,VWS V14.01,2013-06-19 09:12:00,
2013-06-19 05:17:00,61.9,61.9,30.00,SSW,202,0.0,0.0,100,0.00,,CLR,0.00,VWS V14.01,2013-06-19 09:17:00,
2013-06-19 05:22:00,61.9,61.9,30.00,SSW,202,0.0,0.0,100,0.00,,,0.00,VWS V14.01,2013-06-19 09:22:00,
2013-06-19 05:27:00,61.9,61.9,30.00,SSW,202,0.0,0.0,100,0.00,,,0.00,VWS V14.01,2013-06-19 09:27:00,
2013-06-19 05:32:00,61.7,61.7,30.00,SSW,202,0.0,0.0,100,0.00,,,0.00,VWS V14.01,2013-06-19 09:32:00,
2013-06-19 05:37:00,61.7,61.7,30.00,SSW,202,0.0,0.0,100,0.00,,,0.00,VWS V14.01,2013-06-19 09:37:00,
2013-06-19 05:42:00,61.5,61.5,30.00,SSW,202,0.0,0.0,100,0.00,,CLR,0.00,VWS V14.01,2013-06-19 09:42:00,
2013-06-19 05:47:00,61.3,61.3,30.00,SSW,202,0.0,0.0,100,0.00,,CLR,0.00,VWS V14.01,2013-06-19 09:47:00,
2013-06-19 05:52:00,61.3,61.3,30.00,SSW,202,0.0,0.0,100,0.00,,CLR,0.00,VWS V14.01,2013-06-19 09:52:00,
2013-06-19 05:57:00,61.2,61.2,30.00,SSW,202,0.0,0.0,100,0.00,,CLR,0.00,VWS V14.01,2013-06-19 09:57:00,
2013-06-19 06:02:00,61.0,61.0,30.00,SSW,202,0.0,0.0,100,0.00,,CLR,0.00,VWS V14.01,2013-06-19 10:02:00,
2013-06-19 06:07:00,61.2,61.2,30.00,SSW,202,0.0,0.0,100,0.00,,CLR,0.00,VWS V14.01,2013-06-19 10:07:00,
2013-06-19 06:12:00,61.2,61.2,30.00,SSW,202,0.0,0.0,100,0.00,,CLR,0.00,VWS V14.01,2013-06-19 10:12:00,
2013-06-19 06:17:00,61.0,61.0,30.00,SSW,202,0.0,0.0,100,0.00,,CLR,0.00,VWS V14.01,2013-06-19 10:17:00,
2013-06-19 06:22:00,61.2,61.2,30.00,SSW,202,0.0,0.0,100,0.00,,CLR,0.00,VWS V14.01,2013-06-19 10:22:00,
2013-06-19 06:27:00,61.3,61.3,30.00,SSW,202,0.0,0.0,100,0.00,,CLR,0.00,VWS V14.01,2013-06-19 10:27:00,
2013-06-19 06:32:00,61.3,61.3,30.00,SSW,202,0.0,0.0,100,0.00,,CLR,0.00,VWS V14.01,2013-06-19 10:32:00,
2013-06-19 06:37:00,61.3,61.3,30.00,SSW,202,0.0,0.0,100,0.00,,CLR,0.00,VWS V14.01,2013-06-19 10:37:00,
2013-06-19 06:42:00,61.3,61.3,30.00,SSW,202,0.0,0.0,100,0.00,,CLR,0.00,VWS V14.01,2013-06-19 10:42:00,
2013-06-19 06:47:00,61.7,61.7,30.00,SSW,202,0.0,0.0,100,0.00,,CLR,0.00,VWS V14.01,2013-06-19 10:47:00,
2013-06-19 06:52:00,61.7,61.7,30.00,SSW,202,0.0,0.0,100,0.00,,CLR,0.00,VWS V14.01,2013-06-19 10:52:00,
2013-06-19 06:57:00,61.9,61.9,30.00,SSW,202,0.0,0.0,100,0.00,,CLR,0.00,VWS V14.01,2013-06-19 10:57:00,
2013-06-19 07:03:00,61.9,61.9,30.03,SSW,202,0.0,0.0,100,0.00,,,0.00,VWS V14.01,2013-06-19 11:03:00,
2013-06-19 07:08:00,61.9,61.9,30.03,SSW,202,0.0,0.0,100,0.00,,,0.00,VWS V14.01,2013-06-19 11:08:00,
2013-06-19 07:13:00,62.1,62.1,30.03,SSW,202,0.0,0.0,100,0.00,,,0.00,VWS V14.01,2013-06-19 11:13:00,
2013-06-19 07:18:00,62.1,62.1,30.03,SSW,202,0.0,0.0,100,0.00,,,0.00,VWS V14.01,2013-06-19 11:18:00,
2013-06-19 07:23:00,62.2,62.2,30.03,SSW,202,0.0,0.0,100,0.00,,CLR,0.00,VWS V14.01,2013-06-19 11:23:00,
2013-06-19 07:28:00,62.4,62.4,30.03,SSW,202,0.0,0.0,100,0.00,,CLR,0.00,VWS V14.01,2013-06-19 11:28:00,
2013-06-19 07:33:00,62.8,62.8,30.03,SSW,202,0.0,0.0,100,0.00,,CLR,0.00,VWS V14.01,2013-06-19 11:33:00,
2013-06-19 07:38:00,63.1,63.1,30.03,SSW,202,0.0,0.0,100,0.00,,CLR,0.00,VWS V14.01,2013-06-19 11:38:00,
2013-06-19 07:43:00,63.3,63.3,30.03,SSW,202,0.0,0.0,100,0.00,,CLR,0.00,VWS V14.01,2013-06-19 11:43:00,
2013-06-19 07:48:00,63.7,63.7,30.03,SSW,202,0.0,0.0,100,0.00,,CLR,0.00,VWS V14.01,2013-06-19 11:48:00,
2013-06-19 07:53:00,64.0,64.0,30.03,SSW,202,0.0,0.0,100,0.00,,CLR,0.00,VWS V14.01,2013-06-19 11:53:00,
2013-06-19 07:58:00,64.4,64.4,30.03,SSW,202,0.0,0.0,100,0.00,,CLR,0.00,VWS V14.01,2013-06-19 11:58:00,
2013-06-19 08:03:00,64.8,64.8,30.03,SSW,202,0.0,0.0,100,0.00,,CLR,0.00,VWS V14.01,2013-06-19 12:03:00,
2013-06-19 08:08:00,64.9,64.9,30.03,SSW,202,0.0,0.0,100,0.00,,CLR,0.00,VWS V14.01,2013-06-19 12:08:00,
2013-06-19 08:13:00,65.5,65.5,30.03,SSW,202,0.0,0.0,100,0.00,,CLR,0.00,VWS V14.01,2013-06-19 12:13:00,
2013-06-19 08:18:00,65.7,65.7,30.03,SSW,202,0.0,0.0,100,0.00,,CLR,0.00,VWS V14.01,2013-06-19 12:18:00,
2013-06-19 08:23:00,66.2,66.2,30.03,SSW,202,0.0,2.7,100,0.00,,CLR,0.00,VWS V14.01,2013-06-19 12:23:00,
2013-06-19 08:28:00,66.6,66.6,30.03,SSW,202,0.0,0.0,100,0.00,,CLR,0.00,VWS V14.01,2013-06-19 12:28:00,
2013-06-19 08:33:00,66.6,66.6,30.03,SSW,202,0.0,0.0,100,0.00,,CLR,0.00,VWS V14.01,2013-06-19 12:33:00,
2013-06-19 08:38:00,67.3,67.3,30.03,SSW,202,0.0,0.0,100,0.00,,CLR,0.00,VWS V14.01,2013-06-19 12:38:00,
2013-06-19 08:43:00,67.5,67.5,30.03,SSW,202,0.0,0.0,100,0.00,,CLR,0.00,VWS V14.01,2013-06-19 12:43:00,
2013-06-19 08:48:00,67.8,67.8,30.06,SSW,202,0.0,0.0,100,0.00,,CLR,0.00,VWS V14.01,2013-06-19 12:48:00,
2013-06-19 08:53:00,68.2,68.2,30.06,SSW,202,0.0,0.0,100,0.00,,CLR,0.00,VWS V14.01,2013-06-19 12:53:00,
2013-06-19 08:58:00,68.9,68.9,30.06,SSW,202,0.0,0.0,100,0.00,,CLR,0.00,VWS V14.01,2013-06-19 12:58:00,
2013-06-19 09:03:00,69.1,69.1,30.06,SSW,202,0.0,0.0,100,0.00,,CLR,0.00,VWS V14.01,2013-06-19 13:03:00,
2013-06-19 09:08:00,69.4,69.4,30.06,SSW,202,0.0,0.0,100,0.00,,CLR,0.00,VWS V14.01,2013-06-19 13:08:00,
2013-06-19 09:13:00,69.8,69.8,30.06,SSW,202,0.0,0.0,100,0.00,,CLR,0.00,VWS V14.01,2013-06-19 13:13:00,
2013-06-19 09:18:00,70.0,70.0,30.06,SSW,202,0.0,0.0,100,0.00,,CLR,0.00,VWS V14.01,2013-06-19 13:18:00,
2013-06-19 09:23:00,70.5,70.5,30.06,SSW,202,2.2,2.2,100,0.00,,CLR,0.00,VWS V14.01,2013-06-19 13:23:00,
2013-06-19 09:28:00,70.7,70.7,30.06,SSW,202,0.0,0.0,100,0.00,,CLR,0.00,VWS V14.01,2013-06-19 13:28:00,
2013-06-19 09:33:00,71.1,71.1,30.06,SSW,202,0.0,0.0,100,0.00,,CLR,0.00,VWS V14.01,2013-06-19 13:33:00,
2013-06-19 09:38:00,71.6,71.6,30.06,SSW,202,2.2,2.2,100,0.00,,CLR,0.00,VWS V14.01,2013-06-19 13:38:00,
2013-06-19 09:43:00,72.0,72.0,30.06,SSW,202,0.0,0.0,100,0.00,,CLR,0.00,VWS V14.01,2013-06-19 13:43:00,
2013-06-19 09:48:00,72.1,72.2,30.06,SSW,202,0.0,0.0,100,0.00,,CLR,0.00,VWS V14.01,2013-06-19 13:48:00,
2013-06-19 09:53:00,72.5,69.4,30.06,SSW,202,0.0,0.0,90,0.00,,CLR,0.00,VWS V14.01,2013-06-19 13:53:00,
2013-06-19 09:58:00,72.9,69.3,30.06,SSW,202,0.0,0.0,89,0.00,,CLR,0.00,VWS V14.01,2013-06-19 13:58:00,
2013-06-19 10:03:00,73.6,69.2,30.06,SSW,202,0.0,0.0,86,0.00,,CLR,0.00,VWS V14.01,2013-06-19 14:03:00,
2013-06-19 10:08:00,73.9,69.2,30.06,SSW,202,0.0,0.0,85,0.00,,CLR,0.00,VWS V14.01,2013-06-19 14:08:00,
2013-06-19 10:13:00,74.5,68.8,30.06,SSW,202,0.0,0.0,82,0.00,,CLR,0.00,VWS V14.01,2013-06-19 14:13:00,
2013-06-19 10:18:00,74.5,67.0,30.06,SSW,202,2.7,2.7,78,0.00,,CLR,0.00,VWS V14.01,2013-06-19 14:18:00,
2013-06-19 10:23:00,74.8,66.9,30.06,SSW,202,0.0,2.2,76,0.00,,CLR,0.00,VWS V14.01,2013-06-19 14:23:00,
2013-06-19 10:28:00,75.0,65.1,30.06,SSW,202,0.0,0.0,71,0.00,,CLR,0.00,VWS V14.01,2013-06-19 14:28:00,
2013-06-19 10:33:00,75.2,64.8,30.06,SSW,202,2.2,3.1,70,0.00,,CLR,0.00,VWS V14.01,2013-06-19 14:33:00,
2013-06-19 10:38:00,75.4,64.4,30.06,SSW,202,0.0,0.0,69,0.00,,CLR,0.00,VWS V14.01,2013-06-19 14:38:00,
2013-06-19 10:43:00,75.7,65.8,30.06,SSW,202,0.0,2.2,71,0.00,,CLR,0.00,VWS V14.01,2013-06-19 14:43:00,
2013-06-19 10:48:00,76.5,66.0,30.06,SSW,202,2.7,3.1,70,0.00,,CLR,0.00,VWS V14.01,2013-06-19 14:48:00,
2013-06-19 10:53:00,76.6,64.0,30.06,SSW,202,2.2,2.2,65,0.00,,CLR,0.00,VWS V14.01,2013-06-19 14:53:00,
2013-06-19 10:58:00,76.8,64.2,30.06,SSW,202,2.2,2.2,65,0.00,,CLR,0.00,VWS V14.01,2013-06-19 14:58:00,
2013-06-19 11:03:00,77.7,62.7,30.06,SSW,202,2.2,2.2,60,0.00,,CLR,0.00,VWS V14.01,2013-06-19 15:03:00,
2013-06-19 11:08:00,77.9,64.1,30.06,SSW,202,2.2,2.2,62,0.00,,CLR,0.00,VWS V14.01,2013-06-19 15:08:00,
2013-06-19 11:13:00,77.9,63.5,30.06,SSW,202,0.0,0.0,61,0.00,,CLR,0.00,VWS V14.01,2013-06-19 15:13:00,
2013-06-19 11:18:00,79.3,66.6,30.06,SSW,202,2.2,2.2,65,0.00,,CLR,0.00,VWS V14.01,2013-06-19 15:18:00,
2013-06-19 11:23:00,80.6,66.0,30.06,SSW,202,2.2,2.2,61,0.00,,CLR,0.00,VWS V14.01,2013-06-19 15:23:00,
2013-06-19 11:28:00,81.1,65.9,30.06,SSW,202,2.7,2.7,60,0.00,,CLR,0.00,VWS V14.01,2013-06-19 15:28:00,
2013-06-19 11:33:00,81.1,64.1,30.06,SSW,202,3.1,3.6,56,0.00,,CLR,0.00,VWS V14.01,2013-06-19 15:33:00,
2013-06-19 11:39:00,81.3,63.0,30.06,SSW,202,0.0,2.2,54,0.00,,CLR,0.00,VWS V14.01,2013-06-19 15:39:00,
2013-06-19 11:44:00,81.9,63.5,30.06,SSW,202,2.7,2.7,54,0.00,,SCT030,0.00,VWS V14.01,2013-06-19 15:44:00,
2013-06-19 11:49:00,81.9,61.4,30.06,SSW,202,0.0,0.0,50,0.00,,SCT030,0.00,VWS V14.01,2013-06-19 15:49:00,
2013-06-19 11:54:00,80.6,59.5,30.06,SSW,202,2.2,2.2,49,0.00,,SCT030,0.00,VWS V14.01,2013-06-19 15:54:00,
2013-06-19 11:59:00,82.2,63.1,30.06,SSW,202,0.0,0.0,52,0.00,,SCT030,0.00,VWS V14.01,2013-06-19 15:59:00,
2013-06-19 12:04:00,82.0,63.0,30.06,SSW,202,0.0,0.0,52,0.00,,SCT030,0.00,VWS V14.01,2013-06-19 16:04:00,
2013-06-19 12:09:00,82.4,61.9,30.06,SSW,202,0.0,2.2,50,0.00,,SCT030,0.00,VWS V14.01,2013-06-19 16:09:00,
2013-06-19 12:14:00,81.0,60.6,30.06,SSW,202,0.0,2.7,50,0.00,,SCT030,0.00,VWS V14.01,2013-06-19 16:14:00,
2013-06-19 12:19:00,81.9,62.8,30.06,SSW,202,0.0,2.2,52,0.00,,SCT030,0.00,VWS V14.01,2013-06-19 16:19:00,
2013-06-19 12:24:00,82.8,64.3,30.06,SSW,202,0.0,0.0,54,0.00,,SCT035,0.00,VWS V14.01,2013-06-19 16:24:00,
2013-06-19 12:29:00,83.3,63.4,30.06,SSW,202,2.7,2.7,51,0.00,,SCT035,0.00,VWS V14.01,2013-06-19 16:29:00,
2013-06-19 12:34:00,83.8,61.0,30.06,SSW,202,0.0,2.2,46,0.00,,SCT035,0.00,VWS V14.01,2013-06-19 16:34:00,
2013-06-19 12:39:00,83.3,60.5,30.06,SSW,202,2.2,2.2,46,0.00,,SCT035,0.00,VWS V14.01,2013-06-19 16:39:00,
2013-06-19 12:44:00,82.6,58.3,30.06,SSW,202,0.0,0.0,44,0.00,,BKN035,0.00,VWS V14.01,2013-06-19 16:44:00,
2013-06-19 12:49:00,83.3,59.0,30.06,SSW,202,2.2,2.7,44,0.00,,BKN035,0.00,VWS V14.01,2013-06-19 16:49:00,
2013-06-19 12:54:00,83.3,59.0,30.06,SSW,202,2.2,2.7,44,0.00,,BKN035,0.00,VWS V14.01,2013-06-19 16:54:00,
2013-06-19 12:59:00,83.8,62.5,30.06,SSW,202,0.0,0.0,49,0.00,,BKN035,0.00,VWS V14.01,2013-06-19 16:59:00,
2013-06-19 13:04:00,82.4,59.0,30.06,SSW,202,4.0,4.0,45,0.00,,BKN046,0.00,VWS V14.01,2013-06-19 17:04:00,
2013-06-19 13:09:00,83.1,62.6,30.06,SSW,202,0.0,0.0,50,0.00,,BKN046,0.00,VWS V14.01,2013-06-19 17:09:00,
2013-06-19 13:14:00,83.3,60.5,30.06,SSW,202,3.1,3.1,46,0.00,,BKN046,0.00,VWS V14.01,2013-06-19 17:14:00,
2013-06-19 13:19:00,81.5,60.4,30.06,SSW,202,0.0,0.0,49,0.00,,BKN046,0.00,VWS V14.01,2013-06-19 17:19:00,
2013-06-19 13:24:00,81.7,61.2,30.06,SSW,202,0.0,0.0,50,0.00,,BKN039,0.00,VWS V14.01,2013-06-19 17:24:00,
2013-06-19 13:29:00,82.4,61.9,30.06,SSW,202,0.0,0.0,50,0.00,,BKN039,0.00,VWS V14.01,2013-06-19 17:29:00,
2013-06-19 13:34:00,82.2,58.8,30.06,SSW,202,3.1,3.1,45,0.00,,BKN039,0.00,VWS V14.01,2013-06-19 17:34:00,
2013-06-19 13:39:00,82.6,61.4,30.06,SSW,202,0.0,0.0,49,0.00,,BKN039,0.00,VWS V14.01,2013-06-19 17:39:00,
2013-06-19 13:44:00,82.9,62.4,30.06,SSW,202,2.7,2.7,50,0.00,,SCT039,0.00,VWS V14.01,2013-06-19 17:44:00,
2013-06-19 13:49:00,82.0,60.9,30.06,SSW,202,0.0,2.2,49,0.00,,SCT039,0.00,VWS V14.01,2013-06-19 17:49:00,
2013-06-19 13:54:00,81.5,58.1,30.06,SSW,202,0.0,0.0,45,0.00,,SCT039,0.00,VWS V14.01,2013-06-19 17:54:00,
2013-06-19 13:59:00,81.9,61.4,30.06,SSW,202,3.1,3.1,50,0.00,,SCT039,0.00,VWS V14.01,2013-06-19 17:59:00,
2013-06-19 14:04:00,81.9,62.8,30.06,SSW,202,0.0,0.0,52,0.00,,CLR,0.00,VWS V14.01,2013-06-19 18:04:00,
2013-06-19 14:09:00,81.5,63.1,30.06,SSW,202,0.0,0.0,54,0.00,,CLR,0.00,VWS V14.01,2013-06-19 18:09:00,
2013-06-19 14:14:00,81.5,60.4,30.06,SSW,202,0.0,0.0,49,0.00,,CLR,0.00,VWS V14.01,2013-06-19 18:14:00,
2013-06-19 14:19:00,82.2,61.8,30.06,SSW,202,0.0,0.0,50,0.00,,CLR,0.00,VWS V14.01,2013-06-19 18:19:00,
2013-06-19 14:24:00,81.9,63.5,30.06,SSW,202,0.0,2.2,54,0.00,,CLR,0.00,VWS V14.01,2013-06-19 18:24:00,
2013-06-19 14:29:00,82.4,62.6,30.06,SSW,202,2.2,2.7,51,0.00,,CLR,0.00,VWS V14.01,2013-06-19 18:29:00,
2013-06-19 14:34:00,81.1,61.5,30.06,SSW,202,0.0,2.7,51,0.00,,CLR,0.00,VWS V14.01,2013-06-19 18:34:00,
2013-06-19 14:39:00,82.2,63.8,30.06,SSW,202,0.0,0.0,54,0.00,,CLR,0.00,VWS V14.01,2013-06-19 18:39:00,
2013-06-19 14:44:00,82.2,64.5,30.06,SSW,202,2.2,2.2,55,0.00,,CLR,0.00,VWS V14.01,2013-06-19 18:44:00,
2013-06-19 14:49:00,82.2,62.5,30.06,SSW,202,2.7,2.7,51,0.00,,CLR,0.00,VWS V14.01,2013-06-19 18:49:00,
2013-06-19 14:54:00,81.7,63.3,30.06,SSW,202,0.0,0.0,54,0.00,,CLR,0.00,VWS V14.01,2013-06-19 18:54:00,
2013-06-19 14:59:00,82.0,60.9,30.06,SSW,202,2.2,2.2,49,0.00,,CLR,0.00,VWS V14.01,2013-06-19 18:59:00,
2013-06-19 15:04:00,81.7,61.2,30.06,SSW,202,0.0,2.2,50,0.00,,CLR,0.00,VWS V14.01,2013-06-19 19:04:00,
2013-06-19 15:09:00,81.9,64.1,30.06,SSW,202,2.2,2.2,55,0.00,,CLR,0.00,VWS V14.01,2013-06-19 19:09:00,
2013-06-19 15:14:00,81.9,63.5,30.06,SSW,202,2.2,2.2,54,0.00,,CLR,0.00,VWS V14.01,2013-06-19 19:14:00,
2013-06-19 15:19:00,82.0,62.3,30.06,SSW,202,0.0,0.0,51,0.00,,CLR,0.00,VWS V14.01,2013-06-19 19:19:00,
2013-06-19 15:24:00,81.3,62.3,30.06,SSW,202,2.2,3.1,52,0.00,,CLR,0.00,VWS V14.01,2013-06-19 19:24:00,
2013-06-19 15:29:00,81.3,63.6,30.06,SSW,202,2.7,2.7,55,0.00,,CLR,0.00,VWS V14.01,2013-06-19 19:29:00,
2013-06-19 15:34:00,81.3,64.3,30.03,SSW,202,0.0,2.2,56,0.00,,CLR,0.00,VWS V14.01,2013-06-19 19:34:00,
2013-06-19 15:39:00,81.9,64.1,30.03,SSW,202,3.1,3.1,55,0.00,,CLR,0.00,VWS V14.01,2013-06-19 19:39:00,
2013-06-19 15:44:00,81.9,63.5,30.03,SSW,202,3.6,3.6,54,0.00,,CLR,0.00,VWS V14.01,2013-06-19 19:44:00,
2013-06-19 15:49:00,81.5,61.8,30.03,SSW,202,0.0,0.0,51,0.00,,CLR,0.00,VWS V14.01,2013-06-19 19:49:00,
2013-06-19 15:54:00,81.3,62.3,30.03,SSW,202,0.0,0.0,52,0.00,,CLR,0.00,VWS V14.01,2013-06-19 19:54:00,
2013-06-19 15:59:00,81.1,61.5,30.03,SSW,202,0.0,2.2,51,0.00,,CLR,0.00,VWS V14.01,2013-06-19 19:59:00,
2013-06-19 16:04:00,81.3,60.9,30.03,SSW,202,3.1,3.1,50,0.00,,CLR,0.00,VWS V14.01,2013-06-19 20:04:00,
2013-06-19 16:09:00,81.0,59.9,30.03,SSW,202,0.0,0.0,49,0.00,,CLR,0.00,VWS V14.01,2013-06-19 20:09:00,
2013-06-19 16:14:00,81.0,61.3,30.03,SSW,202,0.0,0.0,51,0.00,,CLR,0.00,VWS V14.01,2013-06-19 20:14:00,
2013-06-19 16:19:00,81.1,60.8,30.03,SSW,202,0.0,0.0,50,0.00,,CLR,0.00,VWS V14.01,2013-06-19 20:19:00,
2013-06-19 16:25:00,81.3,63.0,30.03,SSW,202,2.2,3.1,54,0.00,,CLR,0.00,VWS V14.01,2013-06-19 20:25:00,
2013-06-19 16:30:00,81.7,61.2,30.03,SSW,202,3.1,3.6,50,0.00,,CLR,0.00,VWS V14.01,2013-06-19 20:30:00,
2013-06-19 16:35:00,81.3,61.6,30.03,SSW,202,0.0,2.7,51,0.00,,CLR,0.00,VWS V14.01,2013-06-19 20:35:00,
2013-06-19 16:40:00,81.3,62.3,30.03,SSW,202,0.0,2.2,52,0.00,,CLR,0.00,VWS V14.01,2013-06-19 20:40:00,
2013-06-19 16:45:00,80.8,59.0,30.03,SSW,202,0.0,2.7,48,0.00,,CLR,0.00,VWS V14.01,2013-06-19 20:45:00,
2013-06-19 16:50:00,81.1,60.8,30.03,SSW,202,2.2,2.2,50,0.00,,CLR,0.00,VWS V14.01,2013-06-19 20:50:00,
2013-06-19 16:55:00,81.0,60.6,30.03,SSW,202,2.2,3.1,50,0.00,,CLR,0.00,VWS V14.01,2013-06-19 20:55:00,
2013-06-19 17:00:00,80.4,60.1,30.03,SSW,202,0.0,2.2,50,0.00,,CLR,0.00,VWS V14.01,2013-06-19 21:00:00,
2013-06-19 17:05:00,80.4,62.1,30.06,SSW,202,2.2,2.2,54,0.00,,CLR,0.00,VWS V14.01,2013-06-19 21:05:00,
2013-06-19 17:10:00,80.4,63.4,30.06,SSW,202,2.2,2.2,56,0.00,,CLR,0.00,VWS V14.01,2013-06-19 21:10:00,
2013-06-19 17:15:00,80.6,62.3,30.06,SSW,202,0.0,0.0,54,0.00,,CLR,0.00,VWS V14.01,2013-06-19 21:15:00,
2013-06-19 17:20:00,80.6,62.3,30.06,SSW,202,2.7,2.7,54,0.00,,CLR,0.00,VWS V14.01,2013-06-19 21:20:00,
2013-06-19 17:25:00,81.1,62.1,30.06,SSW,202,0.0,0.0,52,0.00,,CLR,0.00,VWS V14.01,2013-06-19 21:25:00,
2013-06-19 17:30:00,80.6,60.3,30.06,SSW,202,0.0,0.0,50,0.00,,CLR,0.00,VWS V14.01,2013-06-19 21:30:00,
2013-06-19 17:35:00,81.0,61.3,30.06,SSW,202,0.0,0.0,51,0.00,,CLR,0.00,VWS V14.01,2013-06-19 21:35:00,
2013-06-19 17:40:00,80.6,62.3,30.06,SSW,202,2.2,2.7,54,0.00,,SCT075,0.00,VWS V14.01,2013-06-19 21:40:00,
2013-06-19 17:45:00,80.4,62.8,30.06,SSW,202,0.0,0.0,55,0.00,,SCT075,0.00,VWS V14.01,2013-06-19 21:45:00,
2013-06-19 17:50:00,80.6,61.6,30.06,SSW,202,0.0,0.0,52,0.00,,SCT075,0.00,VWS V14.01,2013-06-19 21:50:00,
2013-06-19 17:55:00,80.4,59.4,30.06,SSW,202,0.0,0.0,49,0.00,,SCT075,0.00,VWS V14.01,2013-06-19 21:55:00,
2013-06-19 18:00:00,80.1,61.1,30.06,SSW,202,0.0,0.0,52,0.00,,SCT075,0.00,VWS V14.01,2013-06-19 22:00:00,
2013-06-19 18:05:00,79.7,62.1,30.06,SSW,202,0.0,0.0,55,0.00,,SCT075,0.00,VWS V14.01,2013-06-19 22:05:00,
2013-06-19 18:10:00,79.3,61.1,30.06,SSW,202,2.7,2.7,54,0.00,,SCT075,0.00,VWS V14.01,2013-06-19 22:10:00,
2013-06-19 18:15:00,79.3,60.5,30.06,SSW,202,0.0,0.0,52,0.00,,SCT075,0.00,VWS V14.01,2013-06-19 22:15:00,
2013-06-19 18:20:00,79.2,61.0,30.06,SSW,202,0.0,2.2,54,0.00,,SCT075,0.00,VWS V14.01,2013-06-19 22:20:00,
2013-06-19 18:25:00,79.5,61.3,30.06,SSW,202,0.0,2.7,54,0.00,,CLR,0.00,VWS V14.01,2013-06-19 22:25:00,
2013-06-19 18:30:00,80.1,61.1,30.06,SSW,202,0.0,0.0,52,0.00,,CLR,0.00,VWS V14.01,2013-06-19 22:30:00,
2013-06-19 18:35:00,80.1,61.8,30.09,SSW,202,0.0,0.0,54,0.00,,CLR,0.00,VWS V14.01,2013-06-19 22:35:00,
2013-06-19 18:40:00,79.5,62.0,30.09,SSW,202,0.0,0.0,55,0.00,,CLR,0.00,VWS V14.01,2013-06-19 22:40:00,
2013-06-19 18:45:00,79.2,61.6,30.09,SSW,202,0.0,0.0,55,0.00,,CLR,0.00,VWS V14.01,2013-06-19 22:45:00,
2013-06-19 18:50:00,78.6,61.1,30.09,SSW,202,0.0,0.0,55,0.00,,CLR,0.00,VWS V14.01,2013-06-19 22:50:00,
2013-06-19 18:55:00,78.6,62.4,30.09,SSW,202,0.0,0.0,58,0.00,,CLR,0.00,VWS V14.01,2013-06-19 22:55:00,
2013-06-19 19:00:00,78.3,60.8,30.09,SSW,202,0.0,0.0,55,0.00,,CLR,0.00,VWS V14.01,2013-06-19 23:00:00,
2013-06-19 19:05:00,77.7,60.9,30.09,SSW,202,0.0,0.0,56,0.00,,SCT080,0.00,VWS V14.01,2013-06-19 23:05:00,
2013-06-19 19:10:00,77.0,61.5,30.09,SSW,202,0.0,0.0,59,0.00,,SCT080,0.00,VWS V14.01,2013-06-19 23:10:00,
2013-06-19 19:15:00,77.0,61.5,30.09,SSW,202,0.0,0.0,59,0.00,,SCT080,0.00,VWS V14.01,2013-06-19 23:15:00,
2013-06-19 19:20:00,76.3,62.5,30.09,SSW,202,0.0,0.0,62,0.00,,BKN080,0.00,VWS V14.01,2013-06-19 23:20:00,
2013-06-19 19:25:00,75.9,64.4,30.09,SSW,202,0.0,0.0,68,0.00,,BKN080,0.00,VWS V14.01,2013-06-19 23:25:00,
2013-06-19 19:30:00,75.7,65.3,30.09,SSW,202,0.0,0.0,70,0.00,,BKN080,0.00,VWS V14.01,2013-06-19 23:30:00,
2013-06-19 19:35:00,75.6,65.1,30.09,SSW,202,0.0,0.0,70,0.00,,BKN080,0.00,VWS V14.01,2013-06-19 23:35:00,
2013-06-19 19:40:00,75.2,65.8,30.09,SSW,202,0.0,0.0,72,0.00,,OVC080,0.00,VWS V14.01,2013-06-19 23:40:00,
2013-06-19 19:46:00,75.2,65.8,30.09,SSW,202,0.0,0.0,72,0.00,,OVC080,0.00,VWS V14.01,2013-06-19 23:46:00,
2013-06-19 19:51:00,75.0,66.1,30.09,SSW,202,0.0,0.0,74,0.00,,OVC080,0.00,VWS V14.01,2013-06-19 23:51:00,
2013-06-19 19:56:00,74.8,66.9,30.09,SSW,202,0.0,0.0,76,0.00,,OVC080,0.00,VWS V14.01,2013-06-19 23:56:00,
2013-06-19 20:01:00,74.7,67.6,30.12,SSW,202,0.0,0.0,79,0.00,,OVC080,0.00,VWS V14.01,2013-06-20 00:01:00,
2013-06-19 20:06:00,74.5,68.4,30.12,SSW,202,0.0,0.0,81,0.00,,OVC080,0.00,VWS V14.01,2013-06-20 00:06:00,
2013-06-19 20:11:00,74.1,68.5,30.12,SSW,202,0.0,0.0,82,0.00,,OVC080,0.00,VWS V14.01,2013-06-20 00:11:00,
2013-06-19 20:16:00,73.9,68.3,30.12,SSW,202,0.0,0.0,82,0.00,,OVC080,0.00,VWS V14.01,2013-06-20 00:16:00,
2013-06-19 20:21:00,73.8,68.5,30.12,SSW,202,0.0,0.0,84,0.00,,SCT090,0.00,VWS V14.01,2013-06-20 00:21:00,
2013-06-19 20:26:00,73.6,68.8,30.12,SSW,202,0.0,0.0,85,0.00,,SCT090,0.00,VWS V14.01,2013-06-20 00:26:00,
2013-06-19 20:31:00,73.6,69.2,30.12,SSW,202,0.0,0.0,86,0.00,,SCT090,0.00,VWS V14.01,2013-06-20 00:31:00,
2013-06-19 20:36:00,73.4,69.9,30.12,SSW,202,0.0,0.0,89,0.00,,SCT090,0.00,VWS V14.01,2013-06-20 00:36:00,
2013-06-19 20:41:00,73.2,70.1,30.12,SSW,202,0.0,0.0,90,0.00,,SCT090,0.00,VWS V14.01,2013-06-20 00:41:00,
2013-06-19 20:46:00,73.0,69.9,30.09,SSW,202,0.0,0.0,90,0.00,,SCT090,0.00,VWS V14.01,2013-06-20 00:46:00,
2013-06-19 20:51:00,72.7,70.4,30.09,SSW,202,0.0,0.0,92,0.00,,SCT090,0.00,VWS V14.01,2013-06-20 00:51:00,
2013-06-19 20:56:00,72.5,69.8,30.09,SSW,202,0.0,0.0,91,0.00,,SCT090,0.00,VWS V14.01,2013-06-20 00:56:00,
2013-06-19 21:01:00,72.3,70.0,30.12,SSW,202,0.0,0.0,92,0.00,,BKN090,0.00,VWS V14.01,2013-06-20 01:01:00,
2013-06-19 21:06:00,72.1,69.8,30.12,SSW,202,0.0,0.0,92,0.00,,BKN090,0.00,VWS V14.01,2013-06-20 01:06:00,
2013-06-19 21:11:00,72.0,69.7,30.12,SSW,202,0.0,0.0,92,0.00,,BKN090,0.00,VWS V14.01,2013-06-20 01:11:00,
2013-06-19 21:16:00,72.0,70.4,30.12,SSW,202,0.0,0.0,95,0.00,,BKN090,0.00,VWS V14.01,2013-06-20 01:16:00,
2013-06-19 21:21:00,71.8,71.0,30.12,SSW,202,0.0,0.0,98,0.00,,BKN100,0.00,VWS V14.01,2013-06-20 01:21:00,
2013-06-19 21:26:00,71.6,70.9,30.12,SSW,202,0.0,0.0,98,0.00,,BKN100,0.00,VWS V14.01,2013-06-20 01:26:00,
2013-06-19 21:31:00,71.2,70.9,30.12,SSW,202,0.0,0.0,99,0.00,,BKN100,0.00,VWS V14.01,2013-06-20 01:31:00,
2013-06-19 21:36:00,71.1,70.7,30.12,SSW,202,0.0,0.0,99,0.00,,BKN100,0.00,VWS V14.01,2013-06-20 01:36:00,
2013-06-19 21:41:00,70.7,70.3,30.12,SSW,202,0.0,0.0,99,0.00,,BKN100,0.00,VWS V14.01,2013-06-20 01:41:00,
2013-06-19 21:46:00,70.5,70.2,30.12,SSW,202,0.0,0.0,99,0.00,,BKN100,0.00,VWS V14.01,2013-06-20 01:46:00,
2013-06-19 21:51:00,70.2,69.8,30.12,SSW,202,0.0,0.0,99,0.00,,BKN100,0.00,VWS V14.01,2013-06-20 01:51:00,
2013-06-19 21:57:00,70.0,70.0,30.12,SSW,202,0.0,0.0,100,0.00,,BKN100,0.00,VWS V14.01,2013-06-20 01:57:00,
2013-06-19 22:02:00,69.6,69.6,30.15,SSW,202,0.0,0.0,100,0.00,,SCT100,0.00,VWS V14.01,2013-06-20 02:02:00,
2013-06-19 22:07:00,69.4,69.4,30.15,SSW,202,0.0,0.0,100,0.00,,SCT100,0.00,VWS V14.01,2013-06-20 02:07:00,
2013-06-19 22:12:00,69.1,69.1,30.15,SSW,202,0.0,0.0,100,0.00,,SCT100,0.00,VWS V14.01,2013-06-20 02:12:00,
2013-06-19 22:17:00,68.7,68.7,30.15,SSW,202,0.0,0.0,100,0.00,,SCT100,0.00,VWS V14.01,2013-06-20 02:17:00,
2013-06-19 22:22:00,68.5,68.5,30.15,SSW,202,0.0,0.0,100,0.00,,SCT038,0.00,VWS V14.01,2013-06-20 02:22:00,
2013-06-19 22:27:00,68.5,68.5,30.15,SSW,202,0.0,0.0,100,0.00,,SCT038,0.00,VWS V14.01,2013-06-20 02:27:00,
2013-06-19 22:32:00,68.2,68.2,30.15,SSW,202,0.0,0.0,100,0.00,,SCT038,0.00,VWS V14.01,2013-06-20 02:32:00,
2013-06-19 22:37:00,68.0,68.0,30.15,SSW,202,0.0,0.0,100,0.00,,SCT038,0.00,VWS V14.01,2013-06-20 02:37:00,
2013-06-19 22:42:00,67.8,67.8,30.15,SSW,202,0.0,0.0,100,0.00,,CLR,0.00,VWS V14.01,2013-06-20 02:42:00,
2013-06-19 22:47:00,67.6,67.6,30.18,SSW,202,0.0,0.0,100,0.00,,CLR,0.00,VWS V14.01,2013-06-20 02:47:00,
2013-06-19 22:52:00,67.6,67.6,30.18,SSW,202,0.0,0.0,100,0.00,,CLR,0.00,VWS V14.01,2013-06-20 02:52:00,
2013-06-19 22:57:00,67.5,67.5,30.18,SSW,202,0.0,0.0,100,0.00,,CLR,0.00,VWS V14.01,2013-06-20 02:57:00,
2013-06-19 23:02:00,67.5,67.5,30.18,SSW,202,0.0,0.0,100,0.00,,BKN040,0.00,VWS V14.01,2013-06-20 03:02:00,
2013-06-19 23:07:00,67.5,67.5,30.18,SSW,202,0.0,0.0,100,0.00,,BKN040,0.00,VWS V14.01,2013-06-20 03:07:00,
2013-06-19 23:12:00,67.5,67.5,30.18,SSW,202,0.0,0.0,100,0.00,,BKN040,0.00,VWS V14.01,2013-06-20 03:12:00,
2013-06-19 23:17:00,67.5,67.5,30.18,SSW,202,0.0,0.0,100,0.00,,BKN040,0.00,VWS V14.01,2013-06-20 03:17:00,
2013-06-19 23:22:00,67.8,67.8,30.18,SSW,202,0.0,0.0,100,0.00,,OVC049,0.00,VWS V14.01,2013-06-20 03:22:00,
2013-06-19 23:27:00,67.8,67.8,30.18,SSW,202,0.0,0.0,100,0.00,,OVC049,0.00,VWS V14.01,2013-06-20 03:27:00,
2013-06-19 23:32:00,67.8,67.8,30.18,SSW,202,0.0,0.0,100,0.00,,OVC049,0.00,VWS V14.01,2013-06-20 03:32:00,
2013-06-19 23:37:00,67.8,67.8,30.18,SSW,202,0.0,0.0,100,0.00,,OVC049,0.00,VWS V14.01,2013-06-20 03:37:00,
2013-06-19 23:42:00,67.8,67.8,30.18,SSW,202,0.0,0.0,100,0.00,,SCT049,0.00,VWS V14.01,2013-06-20 03:42:00,
2013-06-19 23:47:00,67.6,67.6,30.18,SSW,202,0.0,0.0,100,0.00,,SCT049,0.00,VWS V14.01,2013-06-20 03:47:00,
2013-06-19 23:52:00,67.5,67.5,30.18,SSW,202,0.0,0.0,100,0.00,,SCT049,0.00,VWS V14.01,2013-06-20 03:52:00,
2013-06-19 23:57:00,67.3,67.3,30.18,SSW,202,0.0,0.0,100,0.00,,SCT049,0.00,VWS V14.01,2013-06-20 03:57:00,